sensor_id;sensor_type;location;lat;lon;timestamp;P1;durP1;ratioP1;P2;durP2;ratioP2
8177;SDS011;4130;48.740;9.132;2022-11-30T00:00:52;13.10;;;8.57;;
8177;SDS011;4130;48.740;9.132;2022-11-30T00:03:19;12.30;;;8.07;;
8177;SDS011;4130;48.740;9.132;2022-11-30T00:05:46;12.77;;;8.87;;
8177;SDS011;4130;48.740;9.132;2022-11-30T00:08:14;14.23;;;7.77;;
8177;SDS011;4130;48.740;9.132;2022-11-30T00:10:42;12.53;;;8.80;;
8177;SDS011;4130;48.740;9.132;2022-11-30T00:13:09;16.27;;;8.93;;
8177;SDS011;4130;48.740;9.132;2022-11-30T00:15:36;14.23;;;8.97;;
8177;SDS011;4130;48.740;9.132;2022-11-30T00:18:03;15.03;;;9.17;;
8177;SDS011;4130;48.740;9.132;2022-11-30T00:20:30;18.13;;;9.43;;
8177;SDS011;4130;48.740;9.132;2022-11-30T00:22:56;13.40;;;8.90;;
8177;SDS011;4130;48.740;9.132;2022-11-30T00:25:23;11.93;;;8.60;;
8177;SDS011;4130;48.740;9.132;2022-11-30T00:27:51;13.20;;;8.03;;
8177;SDS011;4130;48.740;9.132;2022-11-30T00:30:18;14.57;;;9.33;;
8177;SDS011;4130;48.740;9.132;2022-11-30T00:32:45;16.17;;;9.00;;
8177;SDS011;4130;48.740;9.132;2022-11-30T00:35:12;15.87;;;9.63;;
8177;SDS011;4130;48.740;9.132;2022-11-30T00:37:39;15.67;;;9.70;;
8177;SDS011;4130;48.740;9.132;2022-11-30T00:40:06;11.50;;;8.13;;
8177;SDS011;4130;48.740;9.132;2022-11-30T00:42:33;15.27;;;8.57;;
8177;SDS011;4130;48.740;9.132;2022-11-30T00:45:01;13.10;;;8.60;;
8177;SDS011;4130;48.740;9.132;2022-11-30T00:47:28;13.70;;;8.97;;
8177;SDS011;4130;48.740;9.132;2022-11-30T00:49:55;13.47;;;8.73;;
8177;SDS011;4130;48.740;9.132;2022-11-30T00:52:22;11.93;;;8.40;;
8177;SDS011;4130;48.740;9.132;2022-11-30T00:54:49;15.70;;;9.63;;
8177;SDS011;4130;48.740;9.132;2022-11-30T00:57:15;15.93;;;9.33;;
8177;SDS011;4130;48.740;9.132;2022-11-30T00:59:42;15.07;;;9.40;;
8177;SDS011;4130;48.740;9.132;2022-11-30T01:02:10;13.03;;;9.10;;
8177;SDS011;4130;48.740;9.132;2022-11-30T01:04:37;13.47;;;9.50;;
8177;SDS011;4130;48.740;9.132;2022-11-30T01:07:04;13.10;;;8.83;;
8177;SDS011;4130;48.740;9.132;2022-11-30T01:09:30;15.10;;;10.00;;
8177;SDS011;4130;48.740;9.132;2022-11-30T01:11:57;14.97;;;10.50;;
8177;SDS011;4130;48.740;9.132;2022-11-30T01:14:24;14.27;;;9.47;;
8177;SDS011;4130;48.740;9.132;2022-11-30T01:16:51;12.73;;;8.93;;
8177;SDS011;4130;48.740;9.132;2022-11-30T01:19:19;14.53;;;9.40;;
8177;SDS011;4130;48.740;9.132;2022-11-30T01:21:46;13.30;;;9.20;;
8177;SDS011;4130;48.740;9.132;2022-11-30T01:24:13;13.97;;;8.93;;
8177;SDS011;4130;48.740;9.132;2022-11-30T01:26:39;14.80;;;8.90;;
8177;SDS011;4130;48.740;9.132;2022-11-30T01:29:06;13.43;;;8.37;;
8177;SDS011;4130;48.740;9.132;2022-11-30T01:31:33;13.00;;;8.63;;
8177;SDS011;4130;48.740;9.132;2022-11-30T01:34:00;10.93;;;7.77;;
8177;SDS011;4130;48.740;9.132;2022-11-30T01:36:29;11.23;;;7.73;;
8177;SDS011;4130;48.740;9.132;2022-11-30T01:38:56;12.33;;;7.50;;
8177;SDS011;4130;48.740;9.132;2022-11-30T01:41:24;12.13;;;8.60;;
8177;SDS011;4130;48.740;9.132;2022-11-30T01:43:53;12.93;;;7.80;;
8177;SDS011;4130;48.740;9.132;2022-11-30T01:46:22;13.27;;;8.33;;
8177;SDS011;4130;48.740;9.132;2022-11-30T01:49:00;11.73;;;8.23;;
8177;SDS011;4130;48.740;9.132;2022-11-30T01:51:32;12.43;;;8.33;;
8177;SDS011;4130;48.740;9.132;2022-11-30T01:54:10;10.83;;;7.70;;
8177;SDS011;4130;48.740;9.132;2022-11-30T01:56:39;13.40;;;7.47;;
8177;SDS011;4130;48.740;9.132;2022-11-30T01:59:08;12.57;;;7.60;;
8177;SDS011;4130;48.740;9.132;2022-11-30T02:01:36;12.40;;;8.23;;
8177;SDS011;4130;48.740;9.132;2022-11-30T02:04:05;12.07;;;8.00;;
8177;SDS011;4130;48.740;9.132;2022-11-30T02:06:37;12.10;;;7.97;;
8177;SDS011;4130;48.740;9.132;2022-11-30T02:09:04;11.40;;;7.60;;
8177;SDS011;4130;48.740;9.132;2022-11-30T02:11:31;14.70;;;7.13;;
8177;SDS011;4130;48.740;9.132;2022-11-30T02:14:10;12.20;;;7.73;;
8177;SDS011;4130;48.740;9.132;2022-11-30T02:19:36;11.53;;;7.50;;
8177;SDS011;4130;48.740;9.132;2022-11-30T02:22:25;13.30;;;8.10;;
8177;SDS011;4130;48.740;9.132;2022-11-30T02:25:02;10.73;;;7.50;;
8177;SDS011;4130;48.740;9.132;2022-11-30T02:27:40;13.13;;;8.50;;
8177;SDS011;4130;48.740;9.132;2022-11-30T02:30:20;9.30;;;6.77;;
8177;SDS011;4130;48.740;9.132;2022-11-30T02:32:49;11.67;;;7.73;;
8177;SDS011;4130;48.740;9.132;2022-11-30T02:35:20;12.60;;;7.80;;
8177;SDS011;4130;48.740;9.132;2022-11-30T02:37:50;12.13;;;7.93;;
8177;SDS011;4130;48.740;9.132;2022-11-30T02:40:19;10.57;;;7.73;;
8177;SDS011;4130;48.740;9.132;2022-11-30T02:42:46;11.57;;;7.40;;
8177;SDS011;4130;48.740;9.132;2022-11-30T02:45:13;10.60;;;7.43;;
8177;SDS011;4130;48.740;9.132;2022-11-30T02:47:42;10.13;;;7.73;;
8177;SDS011;4130;48.740;9.132;2022-11-30T02:50:14;13.33;;;8.40;;
8177;SDS011;4130;48.740;9.132;2022-11-30T02:52:44;10.63;;;7.57;;
8177;SDS011;4130;48.740;9.132;2022-11-30T02:55:13;10.23;;;7.50;;
8177;SDS011;4130;48.740;9.132;2022-11-30T02:57:42;12.97;;;7.27;;
8177;SDS011;4130;48.740;9.132;2022-11-30T03:00:10;10.40;;;7.03;;
8177;SDS011;4130;48.740;9.132;2022-11-30T03:02:38;11.93;;;7.43;;
8177;SDS011;4130;48.740;9.132;2022-11-30T03:05:06;9.43;;;7.13;;
8177;SDS011;4130;48.740;9.132;2022-11-30T03:07:34;9.67;;;6.33;;
8177;SDS011;4130;48.740;9.132;2022-11-30T03:10:02;11.93;;;6.87;;
8177;SDS011;4130;48.740;9.132;2022-11-30T03:12:29;9.97;;;6.77;;
8177;SDS011;4130;48.740;9.132;2022-11-30T03:14:56;9.43;;;6.40;;
8177;SDS011;4130;48.740;9.132;2022-11-30T03:17:22;10.00;;;6.53;;
8177;SDS011;4130;48.740;9.132;2022-11-30T03:19:49;10.73;;;6.37;;
8177;SDS011;4130;48.740;9.132;2022-11-30T03:22:17;10.13;;;6.33;;
8177;SDS011;4130;48.740;9.132;2022-11-30T03:24:44;8.80;;;6.27;;
8177;SDS011;4130;48.740;9.132;2022-11-30T03:27:11;9.07;;;6.67;;
8177;SDS011;4130;48.740;9.132;2022-11-30T03:29:38;11.93;;;6.90;;
8177;SDS011;4130;48.740;9.132;2022-11-30T03:32:04;9.83;;;6.97;;
8177;SDS011;4130;48.740;9.132;2022-11-30T03:34:31;12.20;;;6.50;;
8177;SDS011;4130;48.740;9.132;2022-11-30T03:36:58;10.97;;;7.20;;
8177;SDS011;4130;48.740;9.132;2022-11-30T03:39:26;9.70;;;6.33;;
8177;SDS011;4130;48.740;9.132;2022-11-30T03:41:53;9.67;;;6.30;;
8177;SDS011;4130;48.740;9.132;2022-11-30T03:44:19;8.77;;;6.07;;
8177;SDS011;4130;48.740;9.132;2022-11-30T03:46:46;10.50;;;6.60;;
8177;SDS011;4130;48.740;9.132;2022-11-30T03:49:13;10.43;;;6.50;;
8177;SDS011;4130;48.740;9.132;2022-11-30T03:51:40;8.23;;;5.97;;
8177;SDS011;4130;48.740;9.132;2022-11-30T03:54:06;9.20;;;6.13;;
8177;SDS011;4130;48.740;9.132;2022-11-30T03:56:35;8.87;;;6.13;;
8177;SDS011;4130;48.740;9.132;2022-11-30T03:59:02;8.97;;;6.33;;
8177;SDS011;4130;48.740;9.132;2022-11-30T04:01:29;8.13;;;6.10;;
8177;SDS011;4130;48.740;9.132;2022-11-30T04:03:55;8.27;;;5.87;;
8177;SDS011;4130;48.740;9.132;2022-11-30T04:06:22;9.03;;;5.47;;
8177;SDS011;4130;48.740;9.132;2022-11-30T04:08:49;11.13;;;6.83;;
8177;SDS011;4130;48.740;9.132;2022-11-30T04:11:16;8.43;;;6.13;;
8177;SDS011;4130;48.740;9.132;2022-11-30T04:13:44;8.30;;;5.33;;
8177;SDS011;4130;48.740;9.132;2022-11-30T04:16:11;6.20;;;5.27;;
8177;SDS011;4130;48.740;9.132;2022-11-30T04:18:38;8.17;;;5.73;;
8177;SDS011;4130;48.740;9.132;2022-11-30T04:21:05;8.10;;;5.80;;
8177;SDS011;4130;48.740;9.132;2022-11-30T04:23:34;8.73;;;6.00;;
8177;SDS011;4130;48.740;9.132;2022-11-30T04:26:02;7.57;;;5.30;;
8177;SDS011;4130;48.740;9.132;2022-11-30T04:28:29;7.07;;;5.17;;
8177;SDS011;4130;48.740;9.132;2022-11-30T04:30:57;6.87;;;5.23;;
8177;SDS011;4130;48.740;9.132;2022-11-30T04:33:25;5.53;;;4.90;;
8177;SDS011;4130;48.740;9.132;2022-11-30T04:35:53;9.33;;;5.97;;
8177;SDS011;4130;48.740;9.132;2022-11-30T04:38:21;7.60;;;5.37;;
8177;SDS011;4130;48.740;9.132;2022-11-30T04:40:48;7.37;;;5.30;;
8177;SDS011;4130;48.740;9.132;2022-11-30T04:43:15;8.03;;;5.40;;
8177;SDS011;4130;48.740;9.132;2022-11-30T04:45:42;7.67;;;4.73;;
8177;SDS011;4130;48.740;9.132;2022-11-30T04:48:13;9.20;;;5.37;;
8177;SDS011;4130;48.740;9.132;2022-11-30T04:50:40;6.20;;;4.97;;
8177;SDS011;4130;48.740;9.132;2022-11-30T04:53:07;6.27;;;4.50;;
8177;SDS011;4130;48.740;9.132;2022-11-30T04:55:35;9.07;;;5.20;;
8177;SDS011;4130;48.740;9.132;2022-11-30T04:58:02;6.33;;;4.93;;
8177;SDS011;4130;48.740;9.132;2022-11-30T05:00:29;7.03;;;4.90;;
8177;SDS011;4130;48.740;9.132;2022-11-30T05:02:56;7.70;;;5.33;;
8177;SDS011;4130;48.740;9.132;2022-11-30T05:05:24;7.47;;;4.87;;
8177;SDS011;4130;48.740;9.132;2022-11-30T05:07:53;7.00;;;5.93;;
8177;SDS011;4130;48.740;9.132;2022-11-30T05:10:21;7.33;;;5.47;;
8177;SDS011;4130;48.740;9.132;2022-11-30T05:12:48;6.10;;;5.23;;
8177;SDS011;4130;48.740;9.132;2022-11-30T05:15:15;10.20;;;5.33;;
8177;SDS011;4130;48.740;9.132;2022-11-30T05:17:42;5.97;;;4.67;;
8177;SDS011;4130;48.740;9.132;2022-11-30T05:20:09;6.77;;;5.40;;
8177;SDS011;4130;48.740;9.132;2022-11-30T05:22:38;7.77;;;5.47;;
8177;SDS011;4130;48.740;9.132;2022-11-30T05:25:05;7.57;;;5.23;;
8177;SDS011;4130;48.740;9.132;2022-11-30T05:27:33;6.23;;;5.17;;
8177;SDS011;4130;48.740;9.132;2022-11-30T05:30:00;6.87;;;5.03;;
8177;SDS011;4130;48.740;9.132;2022-11-30T05:32:27;5.83;;;5.10;;
8177;SDS011;4130;48.740;9.132;2022-11-30T05:34:54;5.90;;;4.80;;
8177;SDS011;4130;48.740;9.132;2022-11-30T05:37:20;8.07;;;5.10;;
8177;SDS011;4130;48.740;9.132;2022-11-30T05:39:48;7.70;;;5.50;;
8177;SDS011;4130;48.740;9.132;2022-11-30T05:42:15;8.20;;;5.87;;
8177;SDS011;4130;48.740;9.132;2022-11-30T05:44:42;6.40;;;5.30;;
8177;SDS011;4130;48.740;9.132;2022-11-30T05:47:09;8.23;;;5.40;;
8177;SDS011;4130;48.740;9.132;2022-11-30T05:49:36;6.40;;;5.10;;
8177;SDS011;4130;48.740;9.132;2022-11-30T05:52:04;7.80;;;5.60;;
8177;SDS011;4130;48.740;9.132;2022-11-30T05:54:32;8.43;;;5.93;;
8177;SDS011;4130;48.740;9.132;2022-11-30T05:57:00;7.40;;;5.67;;
8177;SDS011;4130;48.740;9.132;2022-11-30T05:59:27;8.30;;;5.63;;
8177;SDS011;4130;48.740;9.132;2022-11-30T06:01:53;7.43;;;5.47;;
8177;SDS011;4130;48.740;9.132;2022-11-30T06:04:20;9.50;;;5.90;;
8177;SDS011;4130;48.740;9.132;2022-11-30T06:06:47;7.70;;;6.10;;
8177;SDS011;4130;48.740;9.132;2022-11-30T06:09:16;8.23;;;5.90;;
8177;SDS011;4130;48.740;9.132;2022-11-30T06:11:43;7.53;;;5.67;;
8177;SDS011;4130;48.740;9.132;2022-11-30T06:14:12;6.63;;;5.07;;
8177;SDS011;4130;48.740;9.132;2022-11-30T06:16:38;8.23;;;5.90;;
8177;SDS011;4130;48.740;9.132;2022-11-30T06:19:05;7.10;;;5.57;;
8177;SDS011;4130;48.740;9.132;2022-11-30T06:21:32;7.77;;;5.37;;
8177;SDS011;4130;48.740;9.132;2022-11-30T06:23:59;6.93;;;5.80;;
8177;SDS011;4130;48.740;9.132;2022-11-30T06:26:26;7.53;;;5.57;;
8177;SDS011;4130;48.740;9.132;2022-11-30T06:28:53;8.47;;;5.80;;
8177;SDS011;4130;48.740;9.132;2022-11-30T06:31:21;8.73;;;5.87;;
8177;SDS011;4130;48.740;9.132;2022-11-30T06:33:47;8.23;;;5.83;;
8177;SDS011;4130;48.740;9.132;2022-11-30T06:36:19;7.67;;;5.87;;
8177;SDS011;4130;48.740;9.132;2022-11-30T06:38:46;9.13;;;6.20;;
8177;SDS011;4130;48.740;9.132;2022-11-30T06:41:13;8.20;;;6.23;;
8177;SDS011;4130;48.740;9.132;2022-11-30T06:43:40;7.93;;;5.87;;
8177;SDS011;4130;48.740;9.132;2022-11-30T06:46:07;7.73;;;5.53;;
8177;SDS011;4130;48.740;9.132;2022-11-30T06:48:35;9.07;;;5.50;;
8177;SDS011;4130;48.740;9.132;2022-11-30T06:51:03;7.80;;;5.47;;
8177;SDS011;4130;48.740;9.132;2022-11-30T06:53:30;7.50;;;6.03;;
8177;SDS011;4130;48.740;9.132;2022-11-30T06:55:57;7.13;;;5.00;;
8177;SDS011;4130;48.740;9.132;2022-11-30T06:58:24;9.33;;;6.13;;
8177;SDS011;4130;48.740;9.132;2022-11-30T07:00:51;8.13;;;6.17;;
8177;SDS011;4130;48.740;9.132;2022-11-30T07:03:17;8.03;;;6.20;;
8177;SDS011;4130;48.740;9.132;2022-11-30T07:05:45;7.57;;;5.97;;
8177;SDS011;4130;48.740;9.132;2022-11-30T07:08:12;9.20;;;6.17;;
8177;SDS011;4130;48.740;9.132;2022-11-30T07:10:42;7.23;;;5.40;;
8177;SDS011;4130;48.740;9.132;2022-11-30T07:13:09;8.57;;;5.87;;
8177;SDS011;4130;48.740;9.132;2022-11-30T07:15:37;10.30;;;6.70;;
8177;SDS011;4130;48.740;9.132;2022-11-30T07:18:04;9.40;;;6.47;;
8177;SDS011;4130;48.740;9.132;2022-11-30T07:20:32;9.20;;;6.10;;
8177;SDS011;4130;48.740;9.132;2022-11-30T07:23:00;8.50;;;6.13;;
8177;SDS011;4130;48.740;9.132;2022-11-30T07:25:48;9.27;;;6.27;;
8177;SDS011;4130;48.740;9.132;2022-11-30T07:28:33;9.87;;;5.93;;
8177;SDS011;4130;48.740;9.132;2022-11-30T07:31:11;9.33;;;6.17;;
8177;SDS011;4130;48.740;9.132;2022-11-30T07:33:39;7.57;;;6.00;;
8177;SDS011;4130;48.740;9.132;2022-11-30T07:36:06;9.13;;;6.37;;
8177;SDS011;4130;48.740;9.132;2022-11-30T07:38:35;10.43;;;6.67;;
8177;SDS011;4130;48.740;9.132;2022-11-30T07:41:03;9.13;;;6.37;;
8177;SDS011;4130;48.740;9.132;2022-11-30T07:43:30;8.50;;;6.13;;
8177;SDS011;4130;48.740;9.132;2022-11-30T07:45:57;8.80;;;6.63;;
8177;SDS011;4130;48.740;9.132;2022-11-30T07:48:23;11.23;;;6.83;;
8177;SDS011;4130;48.740;9.132;2022-11-30T07:50:50;10.37;;;6.10;;
8177;SDS011;4130;48.740;9.132;2022-11-30T07:53:17;10.17;;;6.83;;
8177;SDS011;4130;48.740;9.132;2022-11-30T07:55:45;10.10;;;6.67;;
8177;SDS011;4130;48.740;9.132;2022-11-30T07:58:12;10.03;;;6.10;;
8177;SDS011;4130;48.740;9.132;2022-11-30T08:00:38;9.53;;;6.77;;
8177;SDS011;4130;48.740;9.132;2022-11-30T08:03:05;9.67;;;6.53;;
8177;SDS011;4130;48.740;9.132;2022-11-30T08:05:32;9.33;;;6.50;;
8177;SDS011;4130;48.740;9.132;2022-11-30T08:07:59;12.27;;;6.93;;
8177;SDS011;4130;48.740;9.132;2022-11-30T08:10:26;9.47;;;6.33;;
8177;SDS011;4130;48.740;9.132;2022-11-30T08:12:54;11.03;;;7.47;;
8177;SDS011;4130;48.740;9.132;2022-11-30T08:15:21;13.50;;;7.70;;
8177;SDS011;4130;48.740;9.132;2022-11-30T08:17:48;10.73;;;7.00;;
8177;SDS011;4130;48.740;9.132;2022-11-30T08:20:19;11.43;;;7.50;;
8177;SDS011;4130;48.740;9.132;2022-11-30T08:22:46;10.43;;;6.87;;
8177;SDS011;4130;48.740;9.132;2022-11-30T08:25:13;12.17;;;7.47;;
8177;SDS011;4130;48.740;9.132;2022-11-30T08:27:39;10.40;;;7.43;;
8177;SDS011;4130;48.740;9.132;2022-11-30T08:30:08;11.70;;;8.23;;
8177;SDS011;4130;48.740;9.132;2022-11-30T08:32:35;12.50;;;8.03;;
8177;SDS011;4130;48.740;9.132;2022-11-30T08:35:02;14.50;;;8.07;;
8177;SDS011;4130;48.740;9.132;2022-11-30T08:37:29;14.13;;;9.13;;
8177;SDS011;4130;48.740;9.132;2022-11-30T08:39:56;19.57;;;8.77;;
8177;SDS011;4130;48.740;9.132;2022-11-30T08:42:22;16.93;;;8.57;;
8177;SDS011;4130;48.740;9.132;2022-11-30T08:44:49;13.97;;;8.47;;
8177;SDS011;4130;48.740;9.132;2022-11-30T08:47:17;16.20;;;7.90;;
8177;SDS011;4130;48.740;9.132;2022-11-30T08:49:44;12.20;;;7.93;;
8177;SDS011;4130;48.740;9.132;2022-11-30T08:52:11;11.97;;;7.90;;
8177;SDS011;4130;48.740;9.132;2022-11-30T08:54:37;13.07;;;7.70;;
8177;SDS011;4130;48.740;9.132;2022-11-30T08:57:06;15.00;;;8.93;;
8177;SDS011;4130;48.740;9.132;2022-11-30T08:59:33;15.70;;;8.40;;
8177;SDS011;4130;48.740;9.132;2022-11-30T09:02:00;15.33;;;8.73;;
8177;SDS011;4130;48.740;9.132;2022-11-30T09:04:28;14.03;;;8.17;;
8177;SDS011;4130;48.740;9.132;2022-11-30T09:06:55;15.97;;;8.43;;
8177;SDS011;4130;48.740;9.132;2022-11-30T09:09:23;14.47;;;8.37;;
8177;SDS011;4130;48.740;9.132;2022-11-30T09:11:50;16.43;;;8.87;;
8177;SDS011;4130;48.740;9.132;2022-11-30T09:14:17;13.73;;;8.47;;
8177;SDS011;4130;48.740;9.132;2022-11-30T09:16:43;15.20;;;8.47;;
8177;SDS011;4130;48.740;9.132;2022-11-30T09:19:10;11.43;;;7.83;;
8177;SDS011;4130;48.740;9.132;2022-11-30T09:21:38;14.63;;;8.47;;
8177;SDS011;4130;48.740;9.132;2022-11-30T09:24:06;13.10;;;8.90;;
8177;SDS011;4130;48.740;9.132;2022-11-30T09:26:32;15.70;;;9.20;;
8177;SDS011;4130;48.740;9.132;2022-11-30T09:28:59;17.10;;;8.70;;
8177;SDS011;4130;48.740;9.132;2022-11-30T09:31:26;13.43;;;8.03;;
8177;SDS011;4130;48.740;9.132;2022-11-30T09:33:54;13.53;;;7.93;;
8177;SDS011;4130;48.740;9.132;2022-11-30T09:36:22;15.27;;;8.57;;
8177;SDS011;4130;48.740;9.132;2022-11-30T09:38:52;16.77;;;9.57;;
8177;SDS011;4130;48.740;9.132;2022-11-30T09:41:27;15.43;;;9.10;;
8177;SDS011;4130;48.740;9.132;2022-11-30T09:44:12;17.73;;;8.30;;
8177;SDS011;4130;48.740;9.132;2022-11-30T09:46:47;13.30;;;7.97;;
8177;SDS011;4130;48.740;9.132;2022-11-30T09:49:20;15.10;;;8.37;;
8177;SDS011;4130;48.740;9.132;2022-11-30T09:51:49;14.60;;;8.53;;
8177;SDS011;4130;48.740;9.132;2022-11-30T09:54:20;12.03;;;7.67;;
8177;SDS011;4130;48.740;9.132;2022-11-30T09:56:59;12.00;;;7.33;;
8177;SDS011;4130;48.740;9.132;2022-11-30T09:59:29;13.13;;;7.50;;
8177;SDS011;4130;48.740;9.132;2022-11-30T10:01:58;14.30;;;8.23;;
8177;SDS011;4130;48.740;9.132;2022-11-30T10:04:27;15.40;;;8.47;;
8177;SDS011;4130;48.740;9.132;2022-11-30T10:06:58;13.57;;;8.00;;
8177;SDS011;4130;48.740;9.132;2022-11-30T10:09:36;12.27;;;8.10;;
8177;SDS011;4130;48.740;9.132;2022-11-30T10:12:11;10.17;;;6.77;;
8177;SDS011;4130;48.740;9.132;2022-11-30T10:14:54;12.43;;;7.50;;
8177;SDS011;4130;48.740;9.132;2022-11-30T10:17:32;11.37;;;6.80;;
8177;SDS011;4130;48.740;9.132;2022-11-30T10:20:12;10.67;;;6.60;;
8177;SDS011;4130;48.740;9.132;2022-11-30T10:22:53;11.40;;;7.13;;
8177;SDS011;4130;48.740;9.132;2022-11-30T10:25:35;10.97;;;6.77;;
8177;SDS011;4130;48.740;9.132;2022-11-30T10:28:11;13.53;;;7.37;;
8177;SDS011;4130;48.740;9.132;2022-11-30T10:30:41;11.83;;;6.67;;
8177;SDS011;4130;48.740;9.132;2022-11-30T10:33:10;10.73;;;6.80;;
8177;SDS011;4130;48.740;9.132;2022-11-30T10:35:41;12.13;;;7.13;;
8177;SDS011;4130;48.740;9.132;2022-11-30T10:38:12;9.30;;;6.60;;
8177;SDS011;4130;48.740;9.132;2022-11-30T10:40:45;11.33;;;6.87;;
8177;SDS011;4130;48.740;9.132;2022-11-30T10:43:20;10.67;;;6.57;;
8177;SDS011;4130;48.740;9.132;2022-11-30T10:45:53;11.33;;;7.00;;
8177;SDS011;4130;48.740;9.132;2022-11-30T10:48:22;10.60;;;6.53;;
8177;SDS011;4130;48.740;9.132;2022-11-30T10:50:53;9.93;;;6.77;;
8177;SDS011;4130;48.740;9.132;2022-11-30T10:53:20;9.47;;;6.20;;
8177;SDS011;4130;48.740;9.132;2022-11-30T10:55:51;12.67;;;6.87;;
8177;SDS011;4130;48.740;9.132;2022-11-30T10:58:23;10.77;;;7.30;;
8177;SDS011;4130;48.740;9.132;2022-11-30T11:00:57;11.60;;;6.93;;
8177;SDS011;4130;48.740;9.132;2022-11-30T11:03:28;10.37;;;6.40;;
8177;SDS011;4130;48.740;9.132;2022-11-30T11:06:06;10.33;;;6.90;;
8177;SDS011;4130;48.740;9.132;2022-11-30T11:08:39;11.30;;;7.10;;
8177;SDS011;4130;48.740;9.132;2022-11-30T11:14:13;7.07;;;5.30;;
8177;SDS011;4130;48.740;9.132;2022-11-30T11:16:52;9.10;;;5.40;;
8177;SDS011;4130;48.740;9.132;2022-11-30T11:19:22;8.40;;;5.53;;
8177;SDS011;4130;48.740;9.132;2022-11-30T11:21:58;9.07;;;5.47;;
8177;SDS011;4130;48.740;9.132;2022-11-30T11:24:26;10.40;;;6.10;;
8177;SDS011;4130;48.740;9.132;2022-11-30T11:26:54;10.00;;;6.03;;
8177;SDS011;4130;48.740;9.132;2022-11-30T11:29:24;7.60;;;5.10;;
8177;SDS011;4130;48.740;9.132;2022-11-30T11:32:06;9.23;;;5.50;;
8177;SDS011;4130;48.740;9.132;2022-11-30T11:34:41;8.23;;;5.93;;
8177;SDS011;4130;48.740;9.132;2022-11-30T11:37:12;9.70;;;5.97;;
8177;SDS011;4130;48.740;9.132;2022-11-30T11:39:42;9.37;;;6.03;;
8177;SDS011;4130;48.740;9.132;2022-11-30T11:42:20;8.47;;;5.93;;
8177;SDS011;4130;48.740;9.132;2022-11-30T11:44:49;9.40;;;5.73;;
8177;SDS011;4130;48.740;9.132;2022-11-30T11:47:21;11.43;;;6.60;;
8177;SDS011;4130;48.740;9.132;2022-11-30T11:49:50;10.87;;;6.60;;
8177;SDS011;4130;48.740;9.132;2022-11-30T11:52:29;9.87;;;5.73;;
8177;SDS011;4130;48.740;9.132;2022-11-30T11:54:56;8.63;;;5.73;;
8177;SDS011;4130;48.740;9.132;2022-11-30T11:57:31;9.97;;;6.33;;
8177;SDS011;4130;48.740;9.132;2022-11-30T12:00:05;7.73;;;5.40;;
8177;SDS011;4130;48.740;9.132;2022-11-30T12:02:42;8.37;;;5.80;;
8177;SDS011;4130;48.740;9.132;2022-11-30T12:05:14;9.27;;;6.23;;
8177;SDS011;4130;48.740;9.132;2022-11-30T12:07:44;9.93;;;6.47;;
8177;SDS011;4130;48.740;9.132;2022-11-30T12:10:24;9.47;;;6.03;;
8177;SDS011;4130;48.740;9.132;2022-11-30T12:12:56;10.67;;;6.87;;
8177;SDS011;4130;48.740;9.132;2022-11-30T12:15:27;10.57;;;6.50;;
8177;SDS011;4130;48.740;9.132;2022-11-30T12:18:02;9.23;;;6.30;;
8177;SDS011;4130;48.740;9.132;2022-11-30T12:20:39;10.40;;;6.73;;
8177;SDS011;4130;48.740;9.132;2022-11-30T12:23:18;8.90;;;5.93;;
8177;SDS011;4130;48.740;9.132;2022-11-30T12:26:08;9.70;;;6.90;;
8177;SDS011;4130;48.740;9.132;2022-11-30T12:28:42;10.27;;;6.07;;
8177;SDS011;4130;48.740;9.132;2022-11-30T12:31:22;9.67;;;6.53;;
8177;SDS011;4130;48.740;9.132;2022-11-30T12:34:02;9.13;;;5.97;;
8177;SDS011;4130;48.740;9.132;2022-11-30T12:36:38;9.23;;;6.00;;
8177;SDS011;4130;48.740;9.132;2022-11-30T12:39:20;7.10;;;5.60;;
8177;SDS011;4130;48.740;9.132;2022-11-30T12:41:57;10.07;;;5.70;;
8177;SDS011;4130;48.740;9.132;2022-11-30T12:44:35;14.23;;;6.77;;
8177;SDS011;4130;48.740;9.132;2022-11-30T12:47:13;9.67;;;6.67;;
8177;SDS011;4130;48.740;9.132;2022-11-30T12:49:59;7.43;;;5.57;;
8177;SDS011;4130;48.740;9.132;2022-11-30T12:52:42;7.33;;;5.80;;
8177;SDS011;4130;48.740;9.132;2022-11-30T12:55:20;9.17;;;6.03;;
8177;SDS011;4130;48.740;9.132;2022-11-30T12:57:55;7.70;;;5.43;;
8177;SDS011;4130;48.740;9.132;2022-11-30T13:00:27;8.17;;;5.80;;
8177;SDS011;4130;48.740;9.132;2022-11-30T13:03:21;7.73;;;5.47;;
8177;SDS011;4130;48.740;9.132;2022-11-30T13:06:04;10.30;;;5.80;;
8177;SDS011;4130;48.740;9.132;2022-11-30T13:08:47;10.27;;;6.30;;
8177;SDS011;4130;48.740;9.132;2022-11-30T13:11:19;10.83;;;7.53;;
8177;SDS011;4130;48.740;9.132;2022-11-30T13:13:49;10.87;;;6.90;;
8177;SDS011;4130;48.740;9.132;2022-11-30T13:16:18;9.30;;;6.17;;
8177;SDS011;4130;48.740;9.132;2022-11-30T13:18:49;9.80;;;7.00;;
8177;SDS011;4130;48.740;9.132;2022-11-30T13:21:19;9.53;;;6.10;;
8177;SDS011;4130;48.740;9.132;2022-11-30T13:23:52;9.73;;;6.53;;
8177;SDS011;4130;48.740;9.132;2022-11-30T13:26:27;10.40;;;7.27;;
8177;SDS011;4130;48.740;9.132;2022-11-30T13:29:04;8.73;;;5.70;;
8177;SDS011;4130;48.740;9.132;2022-11-30T13:31:42;13.37;;;7.60;;
8177;SDS011;4130;48.740;9.132;2022-11-30T13:34:22;10.47;;;6.70;;
8177;SDS011;4130;48.740;9.132;2022-11-30T13:36:50;8.43;;;5.90;;
8177;SDS011;4130;48.740;9.132;2022-11-30T13:39:25;9.37;;;6.30;;
8177;SDS011;4130;48.740;9.132;2022-11-30T13:42:14;10.27;;;6.10;;
8177;SDS011;4130;48.740;9.132;2022-11-30T13:45:17;8.70;;;6.20;;
8177;SDS011;4130;48.740;9.132;2022-11-30T13:47:53;7.90;;;5.63;;
8177;SDS011;4130;48.740;9.132;2022-11-30T13:50:30;10.07;;;6.30;;
8177;SDS011;4130;48.740;9.132;2022-11-30T13:55:51;9.87;;;6.70;;
8177;SDS011;4130;48.740;9.132;2022-11-30T13:58:23;10.20;;;6.53;;
8177;SDS011;4130;48.740;9.132;2022-11-30T14:06:55;10.23;;;6.67;;
8177;SDS011;4130;48.740;9.132;2022-11-30T14:12:44;10.27;;;6.43;;
8177;SDS011;4130;48.740;9.132;2022-11-30T14:18:19;11.30;;;7.57;;
8177;SDS011;4130;48.740;9.132;2022-11-30T14:20:49;12.60;;;6.60;;
8177;SDS011;4130;48.740;9.132;2022-11-30T14:23:21;9.77;;;6.77;;
8177;SDS011;4130;48.740;9.132;2022-11-30T14:25:53;10.00;;;6.93;;
8177;SDS011;4130;48.740;9.132;2022-11-30T14:28:24;10.77;;;7.23;;
8177;SDS011;4130;48.740;9.132;2022-11-30T14:30:54;11.70;;;6.80;;
8177;SDS011;4130;48.740;9.132;2022-11-30T14:33:23;9.37;;;7.03;;
8177;SDS011;4130;48.740;9.132;2022-11-30T14:35:55;11.47;;;7.20;;
8177;SDS011;4130;48.740;9.132;2022-11-30T14:38:27;10.53;;;7.63;;
8177;SDS011;4130;48.740;9.132;2022-11-30T14:40:55;12.33;;;7.47;;
8177;SDS011;4130;48.740;9.132;2022-11-30T14:43:23;10.53;;;7.20;;
8177;SDS011;4130;48.740;9.132;2022-11-30T14:45:57;9.67;;;6.97;;
8177;SDS011;4130;48.740;9.132;2022-11-30T14:48:24;11.10;;;7.07;;
8177;SDS011;4130;48.740;9.132;2022-11-30T14:50:52;11.97;;;6.83;;
8177;SDS011;4130;48.740;9.132;2022-11-30T14:53:28;8.80;;;6.17;;
8177;SDS011;4130;48.740;9.132;2022-11-30T14:56:03;8.83;;;6.47;;
8177;SDS011;4130;48.740;9.132;2022-11-30T14:58:39;10.63;;;6.83;;
8177;SDS011;4130;48.740;9.132;2022-11-30T15:01:13;11.10;;;6.40;;
8177;SDS011;4130;48.740;9.132;2022-11-30T15:03:43;10.00;;;6.27;;
8177;SDS011;4130;48.740;9.132;2022-11-30T15:06:13;7.87;;;5.97;;
8177;SDS011;4130;48.740;9.132;2022-11-30T15:08:45;9.57;;;6.20;;
8177;SDS011;4130;48.740;9.132;2022-11-30T15:11:14;7.80;;;5.70;;
8177;SDS011;4130;48.740;9.132;2022-11-30T15:13:42;8.67;;;6.47;;
8177;SDS011;4130;48.740;9.132;2022-11-30T15:16:15;11.47;;;6.87;;
8177;SDS011;4130;48.740;9.132;2022-11-30T15:18:45;10.80;;;6.67;;
8177;SDS011;4130;48.740;9.132;2022-11-30T15:21:14;8.27;;;5.93;;
8177;SDS011;4130;48.740;9.132;2022-11-30T15:23:45;11.80;;;6.23;;
8177;SDS011;4130;48.740;9.132;2022-11-30T15:26:12;9.23;;;6.27;;
8177;SDS011;4130;48.740;9.132;2022-11-30T15:28:44;9.43;;;6.33;;
8177;SDS011;4130;48.740;9.132;2022-11-30T15:31:16;9.27;;;5.90;;
8177;SDS011;4130;48.740;9.132;2022-11-30T15:33:44;9.83;;;6.17;;
8177;SDS011;4130;48.740;9.132;2022-11-30T15:36:14;8.47;;;5.97;;
8177;SDS011;4130;48.740;9.132;2022-11-30T15:38:47;9.70;;;6.23;;
8177;SDS011;4130;48.740;9.132;2022-11-30T15:41:16;9.03;;;5.97;;
8177;SDS011;4130;48.740;9.132;2022-11-30T15:43:47;9.70;;;6.27;;
8177;SDS011;4130;48.740;9.132;2022-11-30T15:46:25;9.57;;;6.40;;